Time;durP1;ratioP1;P1;durP2;ratioP2;P2;SDS_P1;SDS_P2;PMS_P1;PMS_P2;Temp;Humidity;BMP_temperature;BMP_pressure;BME280_temperature;BME280_humidity;BME280_pressure;Samples;Min_cycle;Max_cycle;Signal;HPM_P1;HPM_P2
2021/08/14 00:00:40;;;;;;;17.45;11.38;;;21.10;73.60;;;;;;5031617;29;20079;-65
2021/08/14 00:03:12;;;;;;;16.02;11.43;;;21.10;74.20;;;;;;5029240;29;20049;-65
2021/08/14 00:05:44;;;;;;;15.50;11.15;;;21.10;74.10;;;;;;5043538;29;20064;-68
2021/08/14 00:08:16;;;;;;;15.75;10.38;;;21.00;74.20;;;;;;5030400;29;20208;-66
2021/08/14 00:10:48;;;;;;;13.80;10.70;;;21.00;74.10;;;;;;5030452;29;20515;-66
2021/08/14 00:13:20;;;;;;;17.92;10.50;;;20.90;74.10;;;;;;5027518;29;20149;-65
2021/08/14 00:15:52;;;;;;;13.48;10.80;;;20.90;74.10;;;;;;5030018;29;20136;-65
2021/08/14 00:18:24;;;;;;;14.77;10.05;;;20.90;74.60;;;;;;5032124;29;20046;-65
2021/08/14 00:20:56;;;;;;;13.60;10.23;;;20.90;74.30;;;;;;5027161;29;20048;-65
2021/08/14 00:23:28;;;;;;;16.48;10.68;;;20.80;74.60;;;;;;5029479;29;20049;-65
2021/08/14 00:26:00;;;;;;;18.15;10.75;;;20.80;74.80;;;;;;5031268;29;20076;-65
2021/08/14 00:28:32;;;;;;;14.15;10.50;;;20.80;74.80;;;;;;5029394;29;20136;-65
2021/08/14 00:31:04;;;;;;;15.18;10.40;;;20.80;75.00;;;;;;5032993;29;20073;-65
2021/08/14 00:33:36;;;;;;;13.57;10.48;;;20.80;74.70;;;;;;5027074;29;20057;-65
2021/08/14 00:36:07;;;;;;;16.27;10.70;;;20.80;75.50;;;;;;5030751;29;20129;-65
2021/08/14 00:38:39;;;;;;;16.73;11.10;;;20.80;75.50;;;;;;5029648;29;20074;-64
2021/08/14 00:41:12;;;;;;;16.48;11.48;;;20.80;75.30;;;;;;5030953;29;20140;-66
2021/08/14 00:43:45;;;;;;;13.23;10.07;;;20.80;74.70;;;;;;5030768;29;20076;-65
2021/08/14 00:46:20;;;;;;;12.85;10.23;;;20.80;74.70;;;;;;5027941;29;20872;-68
2021/08/14 00:48:52;;;;;;;15.10;10.98;;;20.90;74.70;;;;;;5028372;29;20033;-67
2021/08/14 00:51:24;;;;;;;17.25;10.10;;;20.90;74.70;;;;;;5035458;29;20076;-67
2021/08/14 00:53:56;;;;;;;14.07;10.30;;;20.90;74.60;;;;;;5031964;29;20045;-68
2021/08/14 00:56:28;;;;;;;16.42;10.63;;;20.90;75.10;;;;;;5029079;29;20522;-68
2021/08/14 00:59:00;;;;;;;14.50;10.48;;;20.80;74.70;;;;;;5028012;29;20569;-67
2021/08/14 01:01:33;;;;;;;14.63;11.02;;;20.90;75.30;;;;;;5030565;29;20723;-67
2021/08/14 01:04:12;;;;;;;17.77;11.38;;;20.80;75.20;;;;;;5027413;29;20563;-68
2021/08/14 01:06:44;;;;;;;12.32;10.93;;;20.80;75.00;;;;;;5028208;29;20084;-67
2021/08/14 01:09:16;;;;;;;12.63;10.00;;;20.80;74.80;;;;;;5030397;29;20060;-67
2021/08/14 01:11:49;;;;;;;13.75;10.48;;;20.80;75.20;;;;;;5028808;29;20049;-69
2021/08/14 01:14:21;;;;;;;14.48;10.90;;;20.80;74.90;;;;;;5027363;29;20089;-67
2021/08/14 01:16:53;;;;;;;12.65;10.57;;;20.70;74.90;;;;;;5027297;29;20125;-67
2021/08/14 01:19:27;;;;;;;14.68;10.13;;;20.70;75.00;;;;;;5028789;29;20072;-65
2021/08/14 01:21:59;;;;;;;12.55;10.25;;;20.70;74.80;;;;;;5031301;29;20045;-65
2021/08/14 01:24:34;;;;;;;15.80;11.05;;;20.70;74.90;;;;;;5028552;29;20072;-65
2021/08/14 01:27:07;;;;;;;13.05;10.70;;;20.70;75.40;;;;;;5029963;29;20060;-66
2021/08/14 01:29:39;;;;;;;13.98;10.60;;;20.60;75.60;;;;;;5028641;29;20517;-65
2021/08/14 01:32:11;;;;;;;12.93;10.95;;;20.60;75.90;;;;;;5029272;29;20430;-65
2021/08/14 01:34:44;;;;;;;15.00;11.23;;;20.50;76.50;;;;;;5028471;29;20717;-67
2021/08/14 01:37:16;;;;;;;15.25;11.02;;;20.40;76.90;;;;;;5026492;29;20970;-65
2021/08/14 01:39:48;;;;;;;16.42;10.70;;;20.40;76.90;;;;;;5044740;29;20524;-65
2021/08/14 01:42:19;;;;;;;14.43;10.50;;;20.40;76.90;;;;;;5027588;29;20056;-65
2021/08/14 01:44:52;;;;;;;16.40;10.75;;;20.40;77.20;;;;;;5029430;29;20156;-65
2021/08/14 01:47:24;;;;;;;13.43;10.73;;;20.30;77.20;;;;;;5028866;29;20125;-66
2021/08/14 01:49:56;;;;;;;12.15;10.88;;;20.30;77.30;;;;;;5028804;29;20159;-65
2021/08/14 01:52:27;;;;;;;14.93;10.73;;;20.30;77.20;;;;;;5026367;29;20136;-64
2021/08/14 01:54:59;;;;;;;14.25;11.40;;;20.30;77.90;;;;;;5026227;29;20132;-65
2021/08/14 01:57:31;;;;;;;15.00;11.38;;;20.30;77.50;;;;;;5029285;29;20053;-65
2021/08/14 02:00:04;;;;;;;16.55;10.70;;;20.30;77.20;;;;;;5025263;29;20424;-64
2021/08/14 02:02:42;;;;;;;11.75;10.25;;;20.30;77.00;;;;;;5030483;29;20471;-64
2021/08/14 02:05:17;;;;;;;15.25;10.70;;;20.30;76.70;;;;;;5028312;29;20087;-65
2021/08/14 02:07:49;;;;;;;13.48;10.73;;;20.30;76.70;;;;;;5027352;29;20138;-64
2021/08/14 02:10:21;;;;;;;16.27;10.95;;;20.30;77.20;;;;;;5041248;29;20071;-64
2021/08/14 02:12:53;;;;;;;14.20;11.05;;;20.30;77.20;;;;;;5027749;29;20627;-64
2021/08/14 02:15:26;;;;;;;14.63;10.98;;;20.20;78.00;;;;;;5031566;29;20053;-64
2021/08/14 02:17:57;;;;;;;12.77;10.82;;;20.20;76.90;;;;;;5026294;29;20175;-66
2021/08/14 02:20:29;;;;;;;14.18;10.40;;;20.20;77.30;;;;;;5028009;29;20057;-65
2021/08/14 02:23:01;;;;;;;15.60;10.60;;;20.20;77.40;;;;;;5028269;29;20517;-70
2021/08/14 02:25:36;;;;;;;18.55;10.93;;;20.20;77.50;;;;;;5027022;29;20128;-65
2021/08/14 02:28:08;;;;;;;17.13;10.73;;;20.20;77.20;;;;;;5030960;29;20131;-65
2021/08/14 02:30:39;;;;;;;14.48;11.10;;;20.20;77.00;;;;;;5028619;29;20145;-66
2021/08/14 02:33:11;;;;;;;15.55;11.48;;;20.20;77.90;;;;;;5027981;29;20045;-66
2021/08/14 02:35:43;;;;;;;16.27;10.90;;;20.10;77.20;;;;;;5030248;29;20070;-66
2021/08/14 02:38:16;;;;;;;15.32;11.00;;;20.10;77.10;;;;;;5025252;29;20152;-66
2021/08/14 02:40:48;;;;;;;14.93;11.10;;;20.10;77.60;;;;;;5025977;29;20124;-67
2021/08/14 02:43:20;;;;;;;15.85;11.10;;;20.10;77.50;;;;;;5026148;29;20191;-66
2021/08/14 02:45:51;;;;;;;16.00;11.20;;;20.10;77.30;;;;;;5025916;29;20141;-66
2021/08/14 02:48:23;;;;;;;15.55;11.15;;;20.00;77.90;;;;;;5026259;29;20157;-66
2021/08/14 02:50:56;;;;;;;15.70;11.05;;;19.90;78.20;;;;;;5026992;29;20476;-66
2021/08/14 02:53:28;;;;;;;15.93;10.85;;;19.90;78.50;;;;;;5026967;29;20129;-66
2021/08/14 02:56:00;;;;;;;13.65;10.85;;;19.90;78.50;;;;;;5029663;29;20069;-66
2021/08/14 02:58:32;;;;;;;14.82;10.70;;;19.90;78.60;;;;;;5028162;29;20068;-67
2021/08/14 03:01:04;;;;;;;16.92;10.35;;;19.80;78.30;;;;;;5024254;29;20048;-67
2021/08/14 03:03:36;;;;;;;14.50;10.07;;;19.80;78.30;;;;;;5028751;29;20051;-66
2021/08/14 03:06:22;;;;;;;15.55;10.70;;;19.70;78.40;;;;;;5029452;29;20128;-67
2021/08/14 03:08:54;;;;;;;15.23;10.65;;;19.80;78.20;;;;;;5031067;29;20048;-66
2021/08/14 03:11:26;;;;;;;12.68;10.30;;;19.80;78.00;;;;;;5028741;29;20152;-66
2021/08/14 03:13:58;;;;;;;15.80;10.73;;;19.70;78.00;;;;;;5030013;29;20073;-66
2021/08/14 03:16:30;;;;;;;15.77;10.43;;;19.80;77.90;;;;;;5031862;29;20132;-66
2021/08/14 03:19:02;;;;;;;14.75;10.35;;;19.70;78.10;;;;;;5034976;29;20054;-66
2021/08/14 03:21:34;;;;;;;17.00;10.60;;;19.70;77.60;;;;;;5030382;29;20064;-67
2021/08/14 03:24:06;;;;;;;12.88;10.23;;;19.70;77.70;;;;;;5029894;29;20045;-66
2021/08/14 03:26:38;;;;;;;13.18;10.65;;;19.70;77.60;;;;;;5030775;29;20071;-66
2021/08/14 03:29:10;;;;;;;15.07;10.18;;;19.70;77.90;;;;;;5029981;29;20485;-65
2021/08/14 03:31:41;;;;;;;17.67;10.45;;;19.60;78.60;;;;;;5031652;29;20670;-65
2021/08/14 03:34:13;;;;;;;12.88;9.98;;;19.50;78.60;;;;;;5031910;29;20046;-66
2021/08/14 03:36:45;;;;;;;13.65;10.25;;;19.50;78.50;;;;;;5028674;29;20522;-66
2021/08/14 03:39:17;;;;;;;16.27;10.70;;;19.40;78.30;;;;;;5043909;29;20049;-67
2021/08/14 03:41:49;;;;;;;17.30;10.57;;;19.40;78.30;;;;;;5030451;29;20448;-65
2021/08/14 03:44:21;;;;;;;14.15;11.00;;;19.40;78.40;;;;;;5029696;29;20532;-67
2021/08/14 03:46:53;;;;;;;13.90;9.95;;;19.40;77.90;;;;;;5031114;29;20144;-66
2021/08/14 03:49:25;;;;;;;15.63;11.23;;;19.40;78.60;;;;;;5029230;29;20049;-66
2021/08/14 03:51:57;;;;;;;13.90;10.25;;;19.30;78.30;;;;;;5028167;29;20049;-66
2021/08/14 03:54:28;;;;;;;15.68;10.73;;;19.40;78.20;;;;;;5031737;29;20410;-66
2021/08/14 03:57:00;;;;;;;14.50;10.63;;;19.30;79.40;;;;;;5027329;29;20140;-66
2021/08/14 03:59:32;;;;;;;14.15;9.85;;;19.30;78.60;;;;;;5030768;29;20131;-66
2021/08/14 04:02:04;;;;;;;17.50;10.90;;;19.20;78.40;;;;;;5029407;29;20128;-66
2021/08/14 04:04:36;;;;;;;13.77;10.65;;;19.30;79.10;;;;;;5031731;29;20041;-66
2021/08/14 04:07:08;;;;;;;14.93;10.77;;;19.20;79.40;;;;;;5045677;29;20140;-66
2021/08/14 04:09:40;;;;;;;12.52;10.25;;;19.10;80.40;;;;;;5027561;29;20073;-66
2021/08/14 04:12:12;;;;;;;14.13;11.00;;;19.00;80.00;;;;;;5028455;29;20137;-66
2021/08/14 04:14:44;;;;;;;16.45;10.63;;;19.00;80.20;;;;;;5029206;29;20129;-66
2021/08/14 04:17:34;;;;;;;15.95;11.63;;;18.90;79.70;;;;;;5031737;29;20052;-68
2021/08/14 04:20:07;;;;;;;13.35;11.40;;;18.90;79.20;;;;;;5030138;29;20148;-66
2021/08/14 04:22:39;;;;;;;13.90;10.43;;;18.90;79.30;;;;;;5031302;29;20053;-66
2021/08/14 04:25:11;;;;;;;14.23;10.75;;;18.90;79.00;;;;;;5028879;29;20084;-66
2021/08/14 04:27:42;;;;;;;14.80;11.00;;;18.90;79.70;;;;;;5028989;29;20049;-66
2021/08/14 04:30:14;;;;;;;12.13;10.13;;;18.90;79.80;;;;;;5029916;29;20049;-66
2021/08/14 04:32:46;;;;;;;13.13;10.07;;;18.90;79.10;;;;;;5027474;29;20049;-66
2021/08/14 04:35:19;;;;;;;13.48;10.48;;;18.90;79.10;;;;;;5028984;29;20404;-67
2021/08/14 04:37:51;;;;;;;12.88;10.70;;;18.90;80.00;;;;;;5031733;29;20120;-66
2021/08/14 04:40:23;;;;;;;19.25;10.77;;;18.90;79.30;;;;;;5032136;29;20052;-66
2021/08/14 04:42:55;;;;;;;15.50;10.60;;;18.90;80.00;;;;;;5029114;29;20041;-66
2021/08/14 04:45:27;;;;;;;14.75;10.18;;;19.00;79.00;;;;;;5026333;29;20045;-66
2021/08/14 04:47:59;;;;;;;13.45;10.32;;;19.00;79.40;;;;;;5043558;29;20125;-66
2021/08/14 04:50:31;;;;;;;12.13;9.85;;;19.00;79.60;;;;;;5029555;29;20462;-66
2021/08/14 04:53:03;;;;;;;16.13;11.88;;;19.00;79.70;;;;;;5029249;29;20054;-65
2021/08/14 04:55:35;;;;;;;12.88;9.63;;;19.00;79.70;;;;;;5028218;29;20069;-65
2021/08/14 04:58:06;;;;;;;14.20;10.57;;;19.00;79.60;;;;;;5029236;29;20443;-65
2021/08/14 05:00:39;;;;;;;15.50;10.10;;;19.00;80.30;;;;;;5025526;29;20155;-65
2021/08/14 05:03:11;;;;;;;17.08;10.63;;;19.00;80.30;;;;;;5027914;29;20049;-65
2021/08/14 05:05:43;;;;;;;12.40;9.75;;;19.10;80.70;;;;;;5027482;29;20046;-65
2021/08/14 05:08:15;;;;;;;15.15;11.07;;;19.10;79.60;;;;;;5027150;29;20073;-66
2021/08/14 05:10:47;;;;;;;16.95;10.85;;;19.20;80.10;;;;;;5027411;29;20045;-65
2021/08/14 05:13:19;;;;;;;15.18;10.35;;;19.30;80.60;;;;;;5030442;29;21083;-65
2021/08/14 05:15:51;;;;;;;13.10;10.10;;;19.30;80.60;;;;;;5031210;29;20069;-66
2021/08/14 05:18:23;;;;;;;12.80;10.18;;;19.40;80.30;;;;;;5030582;29;20062;-66
2021/08/14 05:20:55;;;;;;;15.60;11.07;;;19.40;80.20;;;;;;5028922;29;20756;-65
2021/08/14 05:23:27;;;;;;;14.52;11.45;;;19.40;80.30;;;;;;5029237;29;20053;-65
2021/08/14 05:25:59;;;;;;;12.68;10.38;;;19.40;80.00;;;;;;5027943;29;20140;-66
2021/08/14 05:28:31;;;;;;;16.23;11.43;;;19.60;79.80;;;;;;5028479;29;20528;-66
2021/08/14 05:31:03;;;;;;;18.98;11.68;;;19.70;80.00;;;;;;5031730;29;20156;-66
2021/08/14 05:33:35;;;;;;;15.38;11.52;;;19.80;79.10;;;;;;5028405;29;20753;-67
2021/08/14 05:36:10;;;;;;;16.13;11.15;;;19.90;79.90;;;;;;5029085;29;20124;-66
2021/08/14 05:38:42;;;;;;;14.85;11.38;;;19.90;79.20;;;;;;5029056;29;20056;-66
2021/08/14 05:41:14;;;;;;;12.40;10.93;;;20.00;79.80;;;;;;5028763;29;20132;-66
2021/08/14 05:43:46;;;;;;;15.95;12.63;;;20.10;79.80;;;;;;5026175;29;20049;-66
2021/08/14 05:46:18;;;;;;;18.20;11.65;;;20.20;79.80;;;;;;5031019;29;20524;-66
2021/08/14 05:48:50;;;;;;;15.52;11.88;;;20.30;79.20;;;;;;5026291;29;20049;-66
2021/08/14 05:51:24;;;;;;;14.65;11.15;;;20.40;79.00;;;;;;5028220;29;20077;-65
2021/08/14 05:54:16;;;;;;;17.30;12.15;;;20.50;78.90;;;;;;5028916;29;20049;-66
2021/08/14 05:56:48;;;;;;;14.70;11.07;;;20.60;78.40;;;;;;5027514;29;20120;-65
2021/08/14 05:59:20;;;;;;;17.85;12.18;;;20.70;77.70;;;;;;5030999;29;20041;-65
2021/08/14 06:01:52;;;;;;;14.80;11.80;;;20.80;77.50;;;;;;5029938;29;20137;-65
2021/08/14 06:04:24;;;;;;;18.15;11.75;;;20.90;77.30;;;;;;5026178;29;20086;-65
2021/08/14 06:06:56;;;;;;;15.05;11.68;;;21.00;77.20;;;;;;5027115;29;20093;-64
2021/08/14 06:09:28;;;;;;;17.25;11.55;;;21.10;76.70;;;;;;5026234;29;20097;-65
2021/08/14 06:12:00;;;;;;;14.75;11.32;;;21.20;76.50;;;;;;5026696;29;20089;-65
2021/08/14 06:14:32;;;;;;;15.57;11.77;;;21.30;77.40;;;;;;5026981;29;20136;-64
2021/08/14 06:17:04;;;;;;;20.00;11.68;;;21.40;76.30;;;;;;5026917;29;20049;-64
2021/08/14 06:19:36;;;;;;;16.35;12.35;;;21.50;76.10;;;;;;5026570;29;20120;-65
2021/08/14 06:22:09;;;;;;;14.88;11.52;;;21.60;75.90;;;;;;5028238;29;20109;-64
2021/08/14 06:24:41;;;;;;;14.43;11.15;;;21.70;75.50;;;;;;5028952;29;20630;-65
2021/08/14 06:27:13;;;;;;;18.42;12.65;;;21.80;74.80;;;;;;5019320;29;20101;-65
2021/08/14 06:29:45;;;;;;;15.43;12.93;;;21.90;74.90;;;;;;5027204;29;20068;-65
2021/08/14 06:32:17;;;;;;;17.45;12.82;;;21.90;74.50;;;;;;5028433;29;20117;-64
2021/08/14 06:34:49;;;;;;;19.25;12.73;;;22.00;74.20;;;;;;5029845;29;20619;-64
2021/08/14 06:37:21;;;;;;;19.13;12.20;;;22.20;74.40;;;;;;5029150;29;20043;-65
2021/08/14 06:39:53;;;;;;;16.35;12.65;;;22.30;73.70;;;;;;5036044;29;20145;-66
2021/08/14 06:42:25;;;;;;;16.67;12.07;;;22.40;73.20;;;;;;5029677;29;20129;-65
2021/08/14 06:44:57;;;;;;;17.40;11.77;;;22.40;73.10;;;;;;5030766;29;20065;-65
2021/08/14 06:47:29;;;;;;;19.15;12.07;;;22.60;72.90;;;;;;5034364;29;20049;-65
2021/08/14 06:50:00;;;;;;;14.85;12.13;;;22.70;72.60;;;;;;5029196;29;20044;-64
2021/08/14 06:52:35;;;;;;;17.45;12.95;;;22.80;72.80;;;;;;5031595;29;20060;-65
2021/08/14 06:55:07;;;;;;;16.80;12.88;;;22.90;72.20;;;;;;5029773;29;20045;-65
2021/08/14 06:57:39;;;;;;;18.02;12.40;;;22.90;71.90;;;;;;5030597;29;20051;-65
2021/08/14 07:00:12;;;;;;;16.02;12.00;;;23.00;71.10;;;;;;5036711;29;20053;-65
2021/08/14 07:02:44;;;;;;;21.30;12.15;;;23.10;71.00;;;;;;5033413;29;20622;-65
2021/08/14 07:05:21;;;;;;;14.43;12.38;;;23.10;71.00;;;;;;5033737;29;20045;-66
2021/08/14 07:07:55;;;;;;;15.77;12.05;;;23.20;71.60;;;;;;5034454;29;20141;-65
2021/08/14 07:10:27;;;;;;;21.33;12.88;;;23.40;71.40;;;;;;5038108;29;20093;-65
2021/08/14 07:13:06;;;;;;;18.02;12.88;;;23.50;70.70;;;;;;5030597;29;20045;-65
2021/08/14 07:15:40;;;;;;;17.15;12.60;;;23.60;70.90;;;;;;5034996;29;20049;-65
2021/08/14 07:18:12;;;;;;;18.58;12.90;;;23.70;70.90;;;;;;5038080;29;20140;-65
2021/08/14 07:20:44;;;;;;;21.77;13.20;;;23.80;71.70;;;;;;5036725;29;20053;-65
2021/08/14 07:23:18;;;;;;;17.85;12.85;;;23.90;69.50;;;;;;5038507;29;20132;-65
2021/08/14 07:25:51;;;;;;;18.15;12.25;;;23.90;71.00;;;;;;5051874;29;20074;-65
2021/08/14 07:28:27;;;;;;;16.17;12.80;;;24.00;68.70;;;;;;5037652;29;20072;-66
2021/08/14 07:31:07;;;;;;;16.55;12.60;;;24.10;69.20;;;;;;5041562;29;20056;-67
2021/08/14 07:33:44;;;;;;;17.20;12.63;;;24.20;69.30;;;;;;5039710;29;20045;-68
2021/08/14 07:36:16;;;;;;;16.42;12.57;;;24.30;68.10;;;;;;5032928;29;20041;-69
2021/08/14 07:38:48;;;;;;;18.65;12.40;;;24.30;67.60;;;;;;5029805;29;20117;-67
2021/08/14 07:41:20;;;;;;;18.10;12.82;;;24.30;67.50;;;;;;5029751;29;20975;-68
2021/08/14 07:43:52;;;;;;;18.05;12.75;;;24.40;68.30;;;;;;5029752;29;20053;-67
2021/08/14 07:46:24;;;;;;;14.43;12.15;;;24.40;67.10;;;;;;5036032;29;20063;-67
2021/08/14 07:48:56;;;;;;;16.30;12.02;;;24.60;67.90;;;;;;5042497;29;20052;-67
2021/08/14 07:51:28;;;;;;;16.13;12.25;;;24.70;66.40;;;;;;5034843;29;20152;-66
2021/08/14 07:54:00;;;;;;;15.77;12.90;;;24.80;67.00;;;;;;5044338;29;20516;-66
2021/08/14 07:56:31;;;;;;;15.93;13.23;;;25.00;68.50;;;;;;5028490;29;20132;-66
2021/08/14 07:59:03;;;;;;;17.05;13.38;;;25.00;65.50;;;;;;5034408;29;20057;-66
2021/08/14 08:01:35;;;;;;;21.02;13.40;;;25.10;65.20;;;;;;5032101;29;20095;-66
2021/08/14 08:04:08;;;;;;;17.27;13.38;;;25.20;65.70;;;;;;5032328;29;20117;-67
2021/08/14 08:06:39;;;;;;;17.30;13.73;;;25.30;64.10;;;;;;5030986;29;20076;-67
2021/08/14 08:09:11;;;;;;;15.35;13.35;;;25.50;67.50;;;;;;5030257;29;20078;-67
2021/08/14 08:11:43;;;;;;;18.23;14.27;;;25.60;66.90;;;;;;5030685;29;20583;-66
2021/08/14 08:14:15;;;;;;;16.00;13.90;;;25.70;67.10;;;;;;5032741;29;20047;-67
2021/08/14 08:16:50;;;;;;;15.35;13.13;;;25.70;61.70;;;;;;5030191;29;20499;-66
2021/08/14 08:19:22;;;;;;;18.38;13.85;;;25.70;62.30;;;;;;5028542;29;20037;-66
2021/08/14 08:21:55;;;;;;;20.50;13.63;;;25.80;61.50;;;;;;5036515;29;20137;-66
2021/08/14 08:24:27;;;;;;;21.90;13.95;;;25.80;62.60;;;;;;5029187;29;20101;-67
2021/08/14 08:26:58;;;;;;;18.20;14.02;;;26.00;64.00;;;;;;5031068;29;20056;-67
2021/08/14 08:29:30;;;;;;;17.35;13.80;;;26.10;62.30;;;;;;5030522;29;20120;-69
2021/08/14 08:32:03;;;;;;;17.90;13.73;;;26.10;62.30;;;;;;5029412;29;20052;-67
2021/08/14 08:34:35;;;;;;;17.02;14.23;;;26.20;62.40;;;;;;5028607;29;20083;-67
2021/08/14 08:37:07;;;;;;;16.60;13.23;;;26.20;62.90;;;;;;5028199;29;20053;-67
2021/08/14 08:39:39;;;;;;;18.98;13.50;;;26.30;62.80;;;;;;5026747;29;20148;-68
2021/08/14 08:42:11;;;;;;;16.88;13.52;;;26.40;63.20;;;;;;5030540;29;20045;-67
2021/08/14 08:44:42;;;;;;;16.13;13.40;;;26.50;62.80;;;;;;5028816;29;20059;-67
2021/08/14 08:47:15;;;;;;;19.52;14.43;;;26.60;61.00;;;;;;5031301;29;20059;-67
2021/08/14 08:49:55;;;;;;;17.40;13.55;;;26.60;61.90;;;;;;5029305;29;20057;-67
2021/08/14 08:52:27;;;;;;;19.20;14.57;;;26.70;62.00;;;;;;5033810;29;20115;-67
2021/08/14 08:54:59;;;;;;;15.98;14.18;;;26.80;60.70;;;;;;5029998;29;20069;-66
2021/08/14 08:57:31;;;;;;;19.85;14.40;;;26.80;60.80;;;;;;5029473;29;20109;-67
2021/08/14 09:00:04;;;;;;;18.15;14.55;;;26.90;61.20;;;;;;5030452;29;20069;-68
2021/08/14 09:02:36;;;;;;;16.40;14.73;;;27.00;61.70;;;;;;5026825;29;20394;-67
2021/08/14 09:05:11;;;;;;;18.77;14.95;;;27.00;62.00;;;;;;5026442;29;20057;-67
2021/08/14 09:07:46;;;;;;;18.25;15.18;;;27.10;62.70;;;;;;5030181;29;20432;-70
2021/08/14 09:10:25;;;;;;;17.92;15.40;;;27.10;60.50;;;;;;5027483;29;20088;-69
2021/08/14 09:12:57;;;;;;;16.30;14.60;;;27.30;62.30;;;;;;5030030;29;20136;-67
2021/08/14 09:15:32;;;;;;;16.80;14.45;;;27.40;62.30;;;;;;5028537;29;20555;-68
2021/08/14 09:18:06;;;;;;;17.38;14.73;;;27.40;62.10;;;;;;5028790;29;20053;-67
2021/08/14 09:20:51;;;;;;;20.17;15.65;;;27.50;61.60;;;;;;5032589;29;20113;-67
2021/08/14 09:23:24;;;;;;;19.20;15.13;;;27.60;61.00;;;;;;5030199;29;20121;-67
2021/08/14 09:25:58;;;;;;;16.23;14.70;;;27.70;62.20;;;;;;5028992;29;20480;-69
2021/08/14 09:28:31;;;;;;;17.17;15.18;;;27.70;61.40;;;;;;5031187;29;20191;-67
2021/08/14 09:31:05;;;;;;;18.90;15.10;;;27.80;61.40;;;;;;5029225;29;20136;-67
2021/08/14 09:33:38;;;;;;;18.60;15.80;;;27.80;61.90;;;;;;5027899;29;20132;-69
2021/08/14 09:36:10;;;;;;;17.60;15.15;;;27.90;59.90;;;;;;5029852;29;20061;-68
2021/08/14 09:38:44;;;;;;;17.63;15.30;;;28.00;61.70;;;;;;5029711;29;20056;-68
2021/08/14 09:41:21;;;;;;;17.58;15.25;;;28.00;61.50;;;;;;5029042;29;20465;-66
2021/08/14 09:43:56;;;;;;;21.00;16.60;;;28.00;61.10;;;;;;5028156;29;20085;-69
2021/08/14 09:46:42;;;;;;;18.58;15.68;;;28.10;62.10;;;;;;5029153;29;20160;-67
2021/08/14 09:49:14;;;;;;;17.95;16.02;;;28.10;61.90;;;;;;5042958;29;20049;-67
2021/08/14 09:51:46;;;;;;;20.83;16.65;;;28.20;61.90;;;;;;5029162;29;20475;-68
2021/08/14 09:54:19;;;;;;;19.98;15.95;;;28.20;61.60;;;;;;5026617;29;20414;-67
2021/08/14 09:56:51;;;;;;;17.77;15.90;;;28.30;60.10;;;;;;5029827;29;20141;-69
2021/08/14 09:59:23;;;;;;;19.00;16.45;;;28.40;61.00;;;;;;5029621;29;20050;-67
2021/08/14 10:01:55;;;;;;;19.65;16.42;;;28.40;61.90;;;;;;5029295;29;20166;-67
2021/08/14 10:04:27;;;;;;;18.77;16.85;;;28.50;61.60;;;;;;5028514;29;21053;-67
2021/08/14 10:06:59;;;;;;;18.33;16.38;;;28.50;61.10;;;;;;5026779;29;20038;-67
2021/08/14 10:09:31;;;;;;;19.20;17.33;;;28.60;61.70;;;;;;5026689;29;20064;-67
2021/08/14 10:12:04;;;;;;;18.50;16.58;;;28.70;60.90;;;;;;5024452;29;20042;-69
2021/08/14 10:14:42;;;;;;;20.05;16.67;;;28.70;61.20;;;;;;5027726;29;20056;-68
2021/08/14 10:17:16;;;;;;;17.98;16.20;;;28.70;61.50;;;;;;5026832;29;20516;-69
2021/08/14 10:19:49;;;;;;;18.08;16.30;;;28.70;58.50;;;;;;5028766;29;20415;-67
2021/08/14 10:22:25;;;;;;;20.98;16.83;;;28.70;58.90;;;;;;5029882;29;20552;-68
2021/08/14 10:24:57;;;;;;;19.10;17.20;;;28.80;58.80;;;;;;5030274;29;20128;-68
2021/08/14 10:27:55;;;;;;;18.85;16.88;;;28.90;58.90;;;;;;5031244;29;20076;-68
2021/08/14 10:30:48;;;;;;;18.10;15.93;;;28.90;59.40;;;;;;5033162;29;20717;-68
2021/08/14 10:33:31;;;;;;;16.73;15.15;;;29.00;58.80;;;;;;5028320;29;20052;-70
2021/08/14 10:36:18;;;;;;;18.48;16.65;;;29.00;59.90;;;;;;5048650;29;20616;-69
2021/08/14 10:38:50;;;;;;;20.52;16.75;;;29.00;59.10;;;;;;5031282;29;20139;-68
2021/08/14 10:41:39;;;;;;;20.10;16.52;;;29.10;58.90;;;;;;5028481;29;20052;-68
2021/08/14 10:44:11;;;;;;;19.77;16.60;;;29.10;59.90;;;;;;5031770;29;20045;-67
2021/08/14 10:46:47;;;;;;;18.52;16.70;;;29.20;58.50;;;;;;5033533;29;20079;-67
2021/08/14 10:49:21;;;;;;;18.90;16.95;;;29.20;58.90;;;;;;5032077;29;20053;-68
2021/08/14 10:51:52;;;;;;;18.25;16.42;;;29.30;58.30;;;;;;5032520;29;20045;-67
2021/08/14 10:54:27;;;;;;;17.85;16.05;;;29.30;58.20;;;;;;5030555;29;20073;-67
2021/08/14 10:57:02;;;;;;;18.15;16.25;;;29.40;58.10;;;;;;5029674;29;20140;-67
2021/08/14 10:59:39;;;;;;;19.92;16.83;;;29.40;56.70;;;;;;5033034;29;20417;-67
2021/08/14 11:02:12;;;;;;;20.08;16.23;;;29.50;57.80;;;;;;5030445;29;20074;-67
2021/08/14 11:05:04;;;;;;;18.88;16.92;;;29.50;57.20;;;;;;5033608;29;20124;-68
2021/08/14 11:07:41;;;;;;;20.40;16.38;;;29.60;58.80;;;;;;5029948;29;20073;-67
2021/08/14 11:10:13;;;;;;;19.45;16.30;;;29.70;56.60;;;;;;5030062;29;20128;-67
2021/08/14 11:12:52;;;;;;;18.38;16.40;;;29.80;57.30;;;;;;5032594;29;20133;-66
2021/08/14 11:15:29;;;;;;;;;;;29.90;55.90;;;;;;5029793;29;20109;-68
2021/08/14 11:18:02;;;;;;;19.20;17.17;;;29.90;55.90;;;;;;5032021;29;19931;-67
2021/08/14 11:20:35;;;;;;;21.38;17.90;;;30.00;57.40;;;;;;5030368;29;20129;-66
2021/08/14 11:23:27;;;;;;;19.42;17.15;;;30.00;56.70;;;;;;5030818;29;20068;-65
2021/08/14 11:25:59;;;;;;;19.50;16.80;;;30.20;56.20;;;;;;5030692;29;20076;-66
2021/08/14 11:28:31;;;;;;;19.08;17.17;;;30.20;57.80;;;;;;5030936;29;20037;-65
2021/08/14 11:31:04;;;;;;;19.08;17.15;;;30.40;55.20;;;;;;5028553;29;20163;-66
2021/08/14 11:33:37;;;;;;;18.98;17.00;;;30.40;57.20;;;;;;5029719;29;20758;-66
2021/08/14 11:36:10;;;;;;;18.45;16.67;;;30.60;56.40;;;;;;5039177;29;20058;-66
2021/08/14 11:38:43;;;;;;;20.05;17.15;;;30.60;54.00;;;;;;5030869;29;20125;-66
2021/08/14 11:41:21;;;;;;;21.13;17.35;;;30.70;54.80;;;;;;5030339;29;20069;-66
2021/08/14 11:43:53;;;;;;;20.15;17.55;;;30.80;54.10;;;;;;5030084;29;20578;-66
2021/08/14 11:46:25;;;;;;;21.52;17.80;;;30.80;53.90;;;;;;5029698;29;20167;-66
2021/08/14 11:49:01;;;;;;;19.23;17.35;;;30.90;52.80;;;;;;5035162;29;20069;-66
2021/08/14 11:51:33;;;;;;;19.17;17.15;;;31.00;55.10;;;;;;5029231;29;20053;-67
2021/08/14 11:54:07;;;;;;;22.02;17.52;;;31.10;54.40;;;;;;5029481;29;20546;-69
2021/08/14 11:56:39;;;;;;;19.00;17.00;;;31.10;54.70;;;;;;5030415;29;20469;-66
2021/08/14 11:59:11;;;;;;;20.55;16.95;;;31.20;54.00;;;;;;5031349;29;20847;-66
2021/08/14 12:01:50;;;;;;;23.63;17.90;;;31.20;52.70;;;;;;5029240;29;20154;-66
2021/08/14 12:04:23;;;;;;;19.20;17.17;;;31.20;54.20;;;;;;5029886;29;20046;-67
2021/08/14 12:06:56;;;;;;;19.20;17.13;;;31.20;52.70;;;;;;5032047;29;20083;-66
2021/08/14 12:09:28;;;;;;;19.13;17.13;;;31.30;53.10;;;;;;5029150;29;20129;-66
2021/08/14 12:12:00;;;;;;;20.38;18.15;;;31.40;52.80;;;;;;5044637;29;20049;-66
2021/08/14 12:14:41;;;;;;;20.05;18.05;;;31.40;53.70;;;;;;5031404;29;20049;-66
2021/08/14 12:17:14;;;;;;;19.67;17.67;;;31.50;50.80;;;;;;5026177;29;20049;-66
2021/08/14 12:19:51;;;;;;;19.60;17.70;;;31.50;51.80;;;;;;5044619;29;20073;-67
2021/08/14 12:22:30;;;;;;;21.02;17.73;;;31.60;52.20;;;;;;5029041;29;20053;-66
2021/08/14 12:25:21;;;;;;;19.73;17.70;;;31.70;52.10;;;;;;5031031;29;20121;-66
2021/08/14 12:27:53;;;;;;;19.63;17.27;;;31.80;49.60;;;;;;5029463;29;20108;-66
2021/08/14 12:30:25;;;;;;;20.30;18.20;;;31.80;50.20;;;;;;5030155;29;20463;-65
2021/08/14 12:32:57;;;;;;;23.48;17.35;;;31.80;49.80;;;;;;5030830;29;20076;-66
2021/08/14 12:35:29;;;;;;;21.10;17.27;;;31.90;50.00;;;;;;5030425;29;22001;-66
2021/08/14 12:38:07;;;;;;;22.10;17.58;;;31.80;51.20;;;;;;5030127;29;20582;-66
2021/08/14 12:40:41;;;;;;;26.13;18.00;;;31.80;48.40;;;;;;5029147;29;20580;-67
2021/08/14 12:43:18;;;;;;;20.10;17.73;;;31.80;48.20;;;;;;5042767;29;20305;-66
2021/08/14 12:45:51;;;;;;;21.05;17.70;;;31.90;48.00;;;;;;5027285;29;20740;-67
2021/08/14 12:48:23;;;;;;;21.98;17.60;;;32.00;49.70;;;;;;5028357;29;20914;-67
2021/08/14 12:50:55;;;;;;;21.25;17.23;;;32.10;47.20;;;;;;5026234;29;20053;-66
2021/08/14 12:53:27;;;;;;;23.42;17.70;;;32.10;48.10;;;;;;5029757;29;20136;-65
2021/08/14 12:56:10;;;;;;;25.13;17.58;;;32.10;49.30;;;;;;5027772;29;20128;-65
2021/08/14 12:58:42;;;;;;;19.58;17.58;;;32.20;48.50;;;;;;5030509;29;20467;-65